Currently 74°F in Pinon Hills, California, USA
74°F
74°F / 66°F
calm
0.00"
Friday, September 18, 2020 7:25 AM PDT

Pinon Hills, California Weather Summary
Last 36 Hours

Temperature Winds Hourly Humidity Dewpoint
Time Report Norm Report Norm Max Gusts Precip. Rpt. Norm Rpt. Norm Pressure
1,2Fri 07:25 AM  74.0°F  63°F  calm  1 mph  7 mph  0.00"  19%  42%  27°F  39°F  30.18"
Fri 07:00 AM  71.6°F  61°F  4 mph SW  2 mph  8 mph  0.00"  21%  44%  28°F  38°F  30.17"
Fri 06:00 AM  69.8°F  61°F  3 mph SW  2 mph  7 mph  0.00"  22%  44%  27°F  38°F  30.15"
Fri 05:00 AM  70.4°F  61°F  calm  2 mph  none  0.00"  22%  43%  28°F  38°F  30.15"
Fri 04:00 AM  69.4°F  61°F  calm  2 mph  9 mph  0.00"  21%  43%  26°F  38°F  30.15"
Fri 03:00 AM  66.7°F  62°F  2 mph SW  2 mph  6 mph  0.00"  20%  42%  23°F  38°F  30.16"
3Fri 02:35 AM  66.0°F  62°F  2 mph SW  2 mph  6 mph  ----  20%  42%  22°F  37°F  30.17"
Fri 02:00 AM  67.0°F  63°F  4 mph SW  2 mph  6 mph  0.00"  20%  41%  23°F  38°F  30.17"
Fri 01:00 AM  66.5°F  63°F  3 mph SW  2 mph  5 mph  0.00"  19%  40%  21°F  38°F  30.18"
Fri 12:00 AM  68.0°F  64°F  2 mph SW  2 mph  8 mph  0.00"  18%  39%  20°F  38°F  30.19"
Thu 11:00 PM  67.9°F  65°F  1 mph SW  2 mph  8 mph  0.00"  19%  38%  22°F  38°F  30.19"
Thu 10:00 PM  72.2°F  67°F  1 mph S  3 mph  8 mph  0.00"  16%  36%  22°F  38°F  30.19"
Thu 09:00 PM  75.9°F  68°F  2 mph SW  2 mph  7 mph  0.00"  12%  36%  18°F  39°F  30.17"
Thu 08:00 PM  78.9°F  70°F  calm  3 mph  none  0.00"  13%  32%  21°F  38°F  30.16"
Thu 07:00 PM  79.6°F  73°F  calm  3 mph  13 mph  0.00"  12%  28%  21°F  38°F  30.15"
Thu 06:00 PM  82.1°F  78°F  4 mph SW  4 mph  15 mph  0.00"  11%  23%  21°F  36°F  30.14"
Thu 05:00 PM  85.0°F  80°F  calm  5 mph  7 mph  0.00"  12%  21%  25°F  35°F  30.15"
Thu 04:00 PM  88.5°F  81°F  calm  5 mph  4 mph  0.00"  7%  20%  15°F  35°F  30.15"
Thu 03:00 PM  88.7°F  82°F  calm  5 mph  7 mph  0.00"  6%  20%  10°F  35°F  30.16"
Thu 02:00 PM  88.9°F  82°F  calm  5 mph  9 mph  0.00"  5%  20%  8°F  35°F  30.18"
Thu 01:00 PM  87.3°F  81°F  calm  4 mph  none  0.00"  7%  21%  11°F  36°F  30.20"
Thu 12:00 PM  85.8°F  79°F  calm  3 mph  9 mph  0.00"  8%  24%  15°F  38°F  30.22"
Thu 11:00 AM  82.0°F  77°F  calm  3 mph  none  0.00"  10%  27%  18°F  39°F  30.23"
Thu 10:00 AM  80.3°F  74°F  calm  3 mph  none  0.00"  12%  30%  22°F  40°F  30.23"
Thu 09:00 AM  77.9°F  72°F  calm  2 mph  none  0.00"  16%  33%  27°F  40°F  30.22"
Thu 08:00 AM  71.9°F  67°F  calm  1 mph  3 mph  0.00"  18%  39%  25°F  40°F  30.22"
Thu 07:00 AM  66.7°F  62°F  3 mph W  2 mph  6 mph  0.00"  19%  43%  22°F  38°F  30.21"
Thu 06:00 AM  66.0°F  61°F  4 mph W  2 mph  5 mph  0.00"  21%  44%  23°F  38°F  30.19"
Thu 05:00 AM  66.5°F  62°F  calm  2 mph  9 mph  0.00"  20%  43%  23°F  38°F  30.18"
Thu 04:00 AM  65.7°F  62°F  calm  2 mph  3 mph  0.00"  21%  42%  23°F  38°F  30.19"
Thu 03:00 AM  66.4°F  63°F  2 mph W  2 mph  4 mph  0.00"  22%  41%  24°F  38°F  30.19"
Thu 02:00 AM  65.3°F  63°F  3 mph W  2 mph  4 mph  0.00"  20%  40%  22°F  38°F  30.20"
Thu 01:00 AM  66.4°F  64°F  2 mph W  2 mph  7 mph  0.00"  21%  39%  24°F  38°F  30.21"
Thu 12:00 AM  70.0°F  65°F  2 mph W  2 mph  7 mph  0.00"  18%  38%  23°F  38°F  30.21"
Wed 11:00 PM  72.2°F  66°F  4 mph W  2 mph  6 mph  0.00"  14%  37%  19°F  38°F  30.22"
Wed 10:00 PM  71.9°F  67°F  calm  3 mph  none  0.00"  14%  36%  18°F  38°F  30.22"
Wed 09:00 PM  73.7°F  69°F  calm  3 mph  8 mph  0.00"  11%  35%  14°F  39°F  30.22"
Wed 08:00 PM  74.2°F  71°F  4 mph SW  3 mph  7 mph  0.00"  17%  32%  25°F  38°F  30.20"

  1. Current weather data. No green row appears if the current weather data is also the high or low for the current day.
  2. High temperature for the current day.
  3. Low temperature for the current day.

The Pinon Hills, California weather pages are a service of WeatherCurrents.
Copyright ©2020  WeatherCurrents. All rights reserved. - Submit questions and comments - Privacy Policy

This page automatically refreshes every 10 minutes.